sensor_id;sensor_type;location;lat;lon;timestamp;pressure;altitude;pressure_sealevel;temperature;humidity
21547;BME280;41275;51.912;4.388;2023-02-28T00:02:43;103155.59;;;8.71;47.56
21547;BME280;41275;51.912;4.388;2023-02-28T00:08:04;103153.97;;;8.70;47.54
21547;BME280;41275;51.912;4.388;2023-02-28T00:13:25;103153.66;;;8.73;47.31
21547;BME280;41275;51.912;4.388;2023-02-28T00:18:47;103150.16;;;8.72;47.52
21547;BME280;41275;51.912;4.388;2023-02-28T00:24:08;103156.69;;;8.86;47.61
21547;BME280;41275;51.912;4.388;2023-02-28T00:29:30;103166.69;;;9.08;47.04
21547;BME280;41275;51.912;4.388;2023-02-28T00:34:51;103159.63;;;9.17;46.60
21547;BME280;41275;51.912;4.388;2023-02-28T00:40:12;103187.91;;;9.33;46.39
21547;BME280;41275;51.912;4.388;2023-02-28T00:45:33;103165.13;;;9.32;46.92
21547;BME280;41275;51.912;4.388;2023-02-28T00:50:54;103157.22;;;9.40;46.62
21547;BME280;41275;51.912;4.388;2023-02-28T00:56:16;103152.97;;;9.55;46.40
21547;BME280;41275;51.912;4.388;2023-02-28T01:01:37;103162.06;;;9.69;46.37
21547;BME280;41275;51.912;4.388;2023-02-28T01:06:58;103152.31;;;9.70;46.05
21547;BME280;41275;51.912;4.388;2023-02-28T01:12:19;103160.25;;;9.78;45.92
21547;BME280;41275;51.912;4.388;2023-02-28T01:17:41;103160.59;;;9.75;46.39
21547;BME280;41275;51.912;4.388;2023-02-28T01:23:02;103173.16;;;9.81;45.94
21547;BME280;41275;51.912;4.388;2023-02-28T01:28:23;103165.72;;;9.84;46.02
21547;BME280;41275;51.912;4.388;2023-02-28T01:33:45;103167.38;;;9.94;46.05
21547;BME280;41275;51.912;4.388;2023-02-28T01:39:06;103165.72;;;9.93;45.89
21547;BME280;41275;51.912;4.388;2023-02-28T01:50:26;103162.41;;;10.07;45.77
21547;BME280;41275;51.912;4.388;2023-02-28T01:55:50;103157.44;;;10.12;45.63
21547;BME280;41275;51.912;4.388;2023-02-28T02:01:13;103143.38;;;10.20;45.80
21547;BME280;41275;51.912;4.388;2023-02-28T02:06:44;103133.97;;;10.17;45.67
21547;BME280;41275;51.912;4.388;2023-02-28T02:12:31;103134.31;;;10.22;46.02
21547;BME280;41275;51.912;4.388;2023-02-28T02:18:10;103111.97;;;10.25;45.80
21547;BME280;41275;51.912;4.388;2023-02-28T02:24:01;103122.91;;;10.30;45.66
21547;BME280;41275;51.912;4.388;2023-02-28T02:40:53;103123.38;;;10.42;45.46
21547;BME280;41275;51.912;4.388;2023-02-28T02:46:25;103134.28;;;10.47;45.83
21547;BME280;41275;51.912;4.388;2023-02-28T02:51:49;103117.72;;;10.45;45.71
21547;BME280;41275;51.912;4.388;2023-02-28T02:57:16;103111.47;;;10.46;45.59
21547;BME280;41275;51.912;4.388;2023-02-28T03:02:39;103116.25;;;10.50;45.78
21547;BME280;41275;51.912;4.388;2023-02-28T03:08:04;103116.88;;;10.52;45.98
21547;BME280;41275;51.912;4.388;2023-02-28T03:25:52;103132.63;;;10.54;45.85
21547;BME280;41275;51.912;4.388;2023-02-28T03:36:54;103137.41;;;10.59;46.56
21547;BME280;41275;51.912;4.388;2023-02-28T03:42:20;103140.22;;;10.65;46.36
21547;BME280;41275;51.912;4.388;2023-02-28T03:47:53;103120.47;;;10.68;46.41
21547;BME280;41275;51.912;4.388;2023-02-28T03:53:37;103119.84;;;10.66;46.12
21547;BME280;41275;51.912;4.388;2023-02-28T03:59:20;103131.56;;;10.71;46.10
21547;BME280;41275;51.912;4.388;2023-02-28T04:04:43;103128.06;;;10.79;46.23
21547;BME280;41275;51.912;4.388;2023-02-28T04:10:09;103124.56;;;10.87;46.46
21547;BME280;41275;51.912;4.388;2023-02-28T04:15:32;103116.94;;;10.84;46.22
21547;BME280;41275;51.912;4.388;2023-02-28T04:20:53;103111.84;;;10.82;45.91
21547;BME280;41275;51.912;4.388;2023-02-28T04:26:14;103126.34;;;10.94;46.07
21547;BME280;41275;51.912;4.388;2023-02-28T04:31:35;103133.13;;;10.97;46.07
21547;BME280;41275;51.912;4.388;2023-02-28T04:36:57;103132.28;;;10.96;46.07
21547;BME280;41275;51.912;4.388;2023-02-28T04:42:18;103127.00;;;10.96;45.65
21547;BME280;41275;51.912;4.388;2023-02-28T04:47:40;103129.34;;;10.91;45.83
21547;BME280;41275;51.912;4.388;2023-02-28T04:53:01;103131.66;;;10.94;45.27
21547;BME280;41275;51.912;4.388;2023-02-28T04:58:22;103148.84;;;10.98;45.83
21547;BME280;41275;51.912;4.388;2023-02-28T05:03:44;103128.50;;;10.91;45.76
21547;BME280;41275;51.912;4.388;2023-02-28T05:09:05;103142.75;;;10.90;45.96
21547;BME280;41275;51.912;4.388;2023-02-28T05:14:26;103147.06;;;10.91;45.78
21547;BME280;41275;51.912;4.388;2023-02-28T05:19:48;103138.63;;;10.87;46.06
21547;BME280;41275;51.912;4.388;2023-02-28T05:25:16;103143.13;;;10.78;46.14
21547;BME280;41275;51.912;4.388;2023-02-28T05:30:37;103138.16;;;10.75;45.40
21547;BME280;41275;51.912;4.388;2023-02-28T05:35:59;103159.47;;;10.90;44.70
21547;BME280;41275;51.912;4.388;2023-02-28T05:41:20;103147.88;;;10.91;44.32
21547;BME280;41275;51.912;4.388;2023-02-28T05:46:42;103132.69;;;10.85;44.08
21547;BME280;41275;51.912;4.388;2023-02-28T05:52:03;103144.09;;;10.86;43.60
21547;BME280;41275;51.912;4.388;2023-02-28T05:57:25;103149.06;;;10.89;43.57
21547;BME280;41275;51.912;4.388;2023-02-28T06:02:47;103147.41;;;10.88;43.54
21547;BME280;41275;51.912;4.388;2023-02-28T06:08:08;103142.28;;;10.86;43.41
21547;BME280;41275;51.912;4.388;2023-02-28T06:13:29;103133.03;;;10.82;43.13
21547;BME280;41275;51.912;4.388;2023-02-28T06:18:51;103125.75;;;10.76;43.32
21547;BME280;41275;51.912;4.388;2023-02-28T06:24:14;103135.38;;;10.77;43.06
21547;BME280;41275;51.912;4.388;2023-02-28T06:29:37;103136.91;;;10.55;43.29
21547;BME280;41275;51.912;4.388;2023-02-28T06:35:00;103142.25;;;10.39;43.32
21547;BME280;41275;51.912;4.388;2023-02-28T06:40:21;103147.69;;;10.29;42.84
21547;BME280;41275;51.912;4.388;2023-02-28T06:45:43;103143.22;;;10.13;43.11
21547;BME280;41275;51.912;4.388;2023-02-28T06:51:08;103135.97;;;10.07;42.78
21547;BME280;41275;51.912;4.388;2023-02-28T06:56:31;103146.56;;;10.07;42.55
21547;BME280;41275;51.912;4.388;2023-02-28T07:01:52;103156.31;;;10.06;42.00
21547;BME280;41275;51.912;4.388;2023-02-28T07:07:13;103158.09;;;10.06;42.17
21547;BME280;41275;51.912;4.388;2023-02-28T07:12:35;103159.28;;;10.03;42.20
21547;BME280;41275;51.912;4.388;2023-02-28T07:17:57;103183.91;;;10.04;42.98
21547;BME280;41275;51.912;4.388;2023-02-28T07:23:18;103184.22;;;9.84;42.88
21547;BME280;41275;51.912;4.388;2023-02-28T07:28:40;103187.66;;;9.61;43.61
21547;BME280;41275;51.912;4.388;2023-02-28T07:34:03;103189.28;;;9.53;44.82
21547;BME280;41275;51.912;4.388;2023-02-28T07:39:24;103186.44;;;9.39;45.78
21547;BME280;41275;51.912;4.388;2023-02-28T07:44:46;103184.94;;;9.36;45.70
21547;BME280;41275;51.912;4.388;2023-02-28T07:50:09;103186.56;;;9.29;46.09
21547;BME280;41275;51.912;4.388;2023-02-28T07:55:30;103197.75;;;9.23;46.95
21547;BME280;41275;51.912;4.388;2023-02-28T08:00:51;103205.59;;;9.41;46.90
21547;BME280;41275;51.912;4.388;2023-02-28T08:06:19;103203.16;;;9.47;47.64
21547;BME280;41275;51.912;4.388;2023-02-28T08:11:40;103201.38;;;9.56;47.86
21547;BME280;41275;51.912;4.388;2023-02-28T08:17:02;103210.31;;;9.63;47.71
21547;BME280;41275;51.912;4.388;2023-02-28T08:22:23;103210.97;;;9.65;48.02
21547;BME280;41275;51.912;4.388;2023-02-28T08:27:44;103214.63;;;9.72;48.13
21547;BME280;41275;51.912;4.388;2023-02-28T08:33:06;103199.75;;;9.71;48.47
21547;BME280;41275;51.912;4.388;2023-02-28T08:38:27;103201.72;;;9.77;48.31
21547;BME280;41275;51.912;4.388;2023-02-28T08:43:48;103210.19;;;9.89;48.20
21547;BME280;41275;51.912;4.388;2023-02-28T08:49:10;103209.19;;;9.90;48.59
21547;BME280;41275;51.912;4.388;2023-02-28T08:54:31;103193.81;;;9.94;48.51
21547;BME280;41275;51.912;4.388;2023-02-28T08:59:54;103191.19;;;10.18;48.18
21547;BME280;41275;51.912;4.388;2023-02-28T09:05:15;103187.56;;;10.36;48.06
21547;BME280;41275;51.912;4.388;2023-02-28T09:10:36;103184.25;;;10.50;47.33
21547;BME280;41275;51.912;4.388;2023-02-28T09:15:59;103194.00;;;10.57;46.79
21547;BME280;41275;51.912;4.388;2023-02-28T09:21:20;103188.19;;;10.70;46.68
21547;BME280;41275;51.912;4.388;2023-02-28T09:26:42;103181.19;;;10.86;46.64
21547;BME280;41275;51.912;4.388;2023-02-28T09:32:03;103189.78;;;10.88;46.20
21547;BME280;41275;51.912;4.388;2023-02-28T09:37:26;103192.59;;;10.94;46.22
21547;BME280;41275;51.912;4.388;2023-02-28T09:42:52;103196.03;;;11.03;46.12
21547;BME280;41275;51.912;4.388;2023-02-28T09:48:21;103192.69;;;11.09;46.00
21547;BME280;41275;51.912;4.388;2023-02-28T09:53:44;103188.97;;;11.26;45.79
21547;BME280;41275;51.912;4.388;2023-02-28T09:59:29;103195.69;;;11.45;45.30
21547;BME280;41275;51.912;4.388;2023-02-28T10:04:57;103195.38;;;11.40;44.55
21547;BME280;41275;51.912;4.388;2023-02-28T10:10:42;103208.75;;;11.47;43.86
21547;BME280;41275;51.912;4.388;2023-02-28T10:16:18;103195.88;;;11.44;43.53
21547;BME280;41275;51.912;4.388;2023-02-28T10:21:49;103201.50;;;11.41;42.51
21547;BME280;41275;51.912;4.388;2023-02-28T10:27:23;103198.66;;;11.42;41.43
21547;BME280;41275;51.912;4.388;2023-02-28T10:32:50;103187.25;;;11.42;40.49
21547;BME280;41275;51.912;4.388;2023-02-28T10:38:23;103188.34;;;11.55;40.24
21547;BME280;41275;51.912;4.388;2023-02-28T10:43:44;103184.16;;;11.61;39.75
21547;BME280;41275;51.912;4.388;2023-02-28T10:49:13;103182.44;;;11.99;39.56
21547;BME280;41275;51.912;4.388;2023-02-28T10:54:36;103170.69;;;12.32;39.11
21547;BME280;41275;51.912;4.388;2023-02-28T11:00:16;103171.28;;;12.71;38.66
21547;BME280;41275;51.912;4.388;2023-02-28T11:05:38;103172.47;;;13.13;38.01
21547;BME280;41275;51.912;4.388;2023-02-28T11:11:04;103159.88;;;13.22;36.31
21547;BME280;41275;51.912;4.388;2023-02-28T11:16:34;103179.63;;;13.13;35.81
21547;BME280;41275;51.912;4.388;2023-02-28T11:22:00;103164.94;;;13.17;34.98
21547;BME280;41275;51.912;4.388;2023-02-28T11:27:44;103147.50;;;13.14;34.68
21547;BME280;41275;51.912;4.388;2023-02-28T11:33:26;103156.06;;;12.95;34.90
21547;BME280;41275;51.912;4.388;2023-02-28T11:38:48;103156.34;;;12.85;35.33
21547;BME280;41275;51.912;4.388;2023-02-28T11:44:39;103149.59;;;13.19;34.18
21547;BME280;41275;51.912;4.388;2023-02-28T11:50:37;103145.19;;;13.62;32.37
21547;BME280;41275;51.912;4.388;2023-02-28T11:56:06;103126.63;;;13.69;31.56
21547;BME280;41275;51.912;4.388;2023-02-28T12:18:16;103120.38;;;14.33;28.83
21547;BME280;41275;51.912;4.388;2023-02-28T12:29:52;103103.28;;;14.20;28.74
21547;BME280;41275;51.912;4.388;2023-02-28T12:35:19;103108.34;;;15.59;28.06
21547;BME280;41275;51.912;4.388;2023-02-28T12:41:02;103113.25;;;17.07;25.84
21547;BME280;41275;51.912;4.388;2023-02-28T12:46:32;103102.81;;;17.87;24.82
21547;BME280;41275;51.912;4.388;2023-02-28T12:51:55;103100.78;;;18.62;23.90
21547;BME280;41275;51.912;4.388;2023-02-28T12:57:23;103091.66;;;19.00;22.78
21547;BME280;41275;51.912;4.388;2023-02-28T13:02:52;103088.22;;;18.63;22.52
21547;BME280;41275;51.912;4.388;2023-02-28T13:08:38;103089.69;;;18.77;22.34
21547;BME280;41275;51.912;4.388;2023-02-28T13:14:23;103072.41;;;19.57;21.90
21547;BME280;41275;51.912;4.388;2023-02-28T13:41:44;103043.34;;;21.39;18.84
21547;BME280;41275;51.912;4.388;2023-02-28T13:52:27;103046.59;;;21.41;18.69
21547;BME280;41275;51.912;4.388;2023-02-28T14:09:38;103031.59;;;21.84;18.15
21547;BME280;41275;51.912;4.388;2023-02-28T14:15:01;103028.81;;;21.40;18.00
21547;BME280;41275;51.912;4.388;2023-02-28T14:20:29;103024.75;;;21.76;18.10
21547;BME280;41275;51.912;4.388;2023-02-28T14:26:28;103029.44;;;21.64;17.83
21547;BME280;41275;51.912;4.388;2023-02-28T14:31:54;103020.97;;;21.94;18.10
21547;BME280;41275;51.912;4.388;2023-02-28T14:37:25;103023.41;;;22.39;17.35
21547;BME280;41275;51.912;4.388;2023-02-28T14:42:55;103019.97;;;22.44;17.42
21547;BME280;41275;51.912;4.388;2023-02-28T14:48:17;103022.91;;;22.42;17.06
21547;BME280;41275;51.912;4.388;2023-02-28T14:53:40;103020.09;;;22.32;17.40
21547;BME280;41275;51.912;4.388;2023-02-28T14:59:01;103010.88;;;23.04;16.99
21547;BME280;41275;51.912;4.388;2023-02-28T15:04:26;103017.66;;;22.52;16.78
21547;BME280;41275;51.912;4.388;2023-02-28T15:10:23;103010.97;;;18.72;19.08
21547;BME280;41275;51.912;4.388;2023-02-28T15:15:56;103011.19;;;16.65;20.61
21547;BME280;41275;51.912;4.388;2023-02-28T15:21:21;103010.41;;;15.60;22.33
21547;BME280;41275;51.912;4.388;2023-02-28T15:26:46;103013.25;;;14.92;22.70
21547;BME280;41275;51.912;4.388;2023-02-28T15:32:31;103016.53;;;14.39;23.73
21547;BME280;41275;51.912;4.388;2023-02-28T15:38:08;103010.63;;;14.09;24.06
21547;BME280;41275;51.912;4.388;2023-02-28T15:43:38;103004.22;;;13.97;24.70
21547;BME280;41275;51.912;4.388;2023-02-28T15:49:00;103009.63;;;13.82;24.52
21547;BME280;41275;51.912;4.388;2023-02-28T15:54:24;103006.69;;;13.70;24.65
21547;BME280;41275;51.912;4.388;2023-02-28T16:00:00;102999.22;;;13.53;24.87
21547;BME280;41275;51.912;4.388;2023-02-28T16:05:24;103005.03;;;13.41;24.95
21547;BME280;41275;51.912;4.388;2023-02-28T16:10:51;103008.28;;;13.37;25.40
21547;BME280;41275;51.912;4.388;2023-02-28T16:16:17;103009.25;;;13.29;25.32
21547;BME280;41275;51.912;4.388;2023-02-28T16:21:40;103004.19;;;13.19;25.05
21547;BME280;41275;51.912;4.388;2023-02-28T16:27:01;103000.03;;;13.10;25.22
21547;BME280;41275;51.912;4.388;2023-02-28T16:32:22;103003.81;;;13.01;25.36
21547;BME280;41275;51.912;4.388;2023-02-28T16:37:44;103005.16;;;12.90;25.46
21547;BME280;41275;51.912;4.388;2023-02-28T16:43:17;103010.94;;;12.79;25.63
21547;BME280;41275;51.912;4.388;2023-02-28T16:48:40;103015.91;;;12.67;26.56
21547;BME280;41275;51.912;4.388;2023-02-28T16:54:04;103022.72;;;12.55;28.30
21547;BME280;41275;51.912;4.388;2023-02-28T16:59:26;103029.88;;;12.40;29.44
21547;BME280;41275;51.912;4.388;2023-02-28T17:04:48;103035.03;;;12.26;30.18
21547;BME280;41275;51.912;4.388;2023-02-28T17:10:22;103032.34;;;12.12;30.66
21547;BME280;41275;51.912;4.388;2023-02-28T17:15:44;103039.94;;;12.00;30.65
21547;BME280;41275;51.912;4.388;2023-02-28T17:21:14;103046.69;;;11.88;32.04
21547;BME280;41275;51.912;4.388;2023-02-28T17:26:36;103053.31;;;11.69;32.67
21547;BME280;41275;51.912;4.388;2023-02-28T17:31:57;103063.69;;;11.55;32.94
21547;BME280;41275;51.912;4.388;2023-02-28T17:37:19;103068.28;;;11.39;33.66
21547;BME280;41275;51.912;4.388;2023-02-28T17:42:40;103082.59;;;11.29;34.08
21547;BME280;41275;51.912;4.388;2023-02-28T17:48:01;103084.50;;;11.21;34.32
21547;BME280;41275;51.912;4.388;2023-02-28T17:53:23;103093.31;;;11.13;35.07
21547;BME280;41275;51.912;4.388;2023-02-28T17:58:44;103099.00;;;11.02;35.32
21547;BME280;41275;51.912;4.388;2023-02-28T18:04:05;103112.09;;;10.95;34.97
21547;BME280;41275;51.912;4.388;2023-02-28T18:09:26;103113.97;;;10.87;35.83
21547;BME280;41275;51.912;4.388;2023-02-28T18:14:48;103114.00;;;10.78;35.77
21547;BME280;41275;51.912;4.388;2023-02-28T18:20:10;103119.97;;;10.72;36.08
21547;BME280;41275;51.912;4.388;2023-02-28T18:25:31;103117.34;;;10.64;36.42
21547;BME280;41275;51.912;4.388;2023-02-28T18:30:52;103123.34;;;10.58;36.25
21547;BME280;41275;51.912;4.388;2023-02-28T18:36:14;103134.59;;;10.52;36.75
21547;BME280;41275;51.912;4.388;2023-02-28T18:41:36;103125.84;;;10.43;36.99
21547;BME280;41275;51.912;4.388;2023-02-28T18:46:57;103130.66;;;10.40;36.95
21547;BME280;41275;51.912;4.388;2023-02-28T18:52:19;103138.63;;;10.31;37.41
21547;BME280;41275;51.912;4.388;2023-02-28T18:57:40;103142.59;;;10.27;37.37
21547;BME280;41275;51.912;4.388;2023-02-28T19:03:02;103129.16;;;10.21;38.04
21547;BME280;41275;51.912;4.388;2023-02-28T19:08:24;103132.16;;;10.09;38.65
21547;BME280;41275;51.912;4.388;2023-02-28T19:13:45;103118.41;;;10.06;38.49
21547;BME280;41275;51.912;4.388;2023-02-28T19:19:07;103129.50;;;10.01;38.68
21547;BME280;41275;51.912;4.388;2023-02-28T19:24:28;103127.53;;;9.95;38.96
21547;BME280;41275;51.912;4.388;2023-02-28T19:29:50;103133.47;;;9.89;39.24
21547;BME280;41275;51.912;4.388;2023-02-28T19:35:13;103138.75;;;9.81;39.70
21547;BME280;41275;51.912;4.388;2023-02-28T19:40:35;103143.56;;;9.77;40.12
21547;BME280;41275;51.912;4.388;2023-02-28T19:45:57;103153.47;;;9.75;40.21
21547;BME280;41275;51.912;4.388;2023-02-28T19:51:18;103146.19;;;9.69;40.20
21547;BME280;41275;51.912;4.388;2023-02-28T19:56:39;103147.81;;;9.62;40.79
21547;BME280;41275;51.912;4.388;2023-02-28T20:02:00;103142.03;;;9.58;41.07
21547;BME280;41275;51.912;4.388;2023-02-28T20:07:22;103145.84;;;9.56;41.26
21547;BME280;41275;51.912;4.388;2023-02-28T20:12:43;103141.88;;;9.52;41.26
21547;BME280;41275;51.912;4.388;2023-02-28T20:18:04;103148.97;;;9.51;41.32
21547;BME280;41275;51.912;4.388;2023-02-28T20:23:26;103148.78;;;9.45;42.00
21547;BME280;41275;51.912;4.388;2023-02-28T20:28:47;103152.56;;;9.42;41.83
21547;BME280;41275;51.912;4.388;2023-02-28T20:34:09;103150.44;;;9.38;42.17
21547;BME280;41275;51.912;4.388;2023-02-28T20:39:30;103157.03;;;9.33;42.66
21547;BME280;41275;51.912;4.388;2023-02-28T20:44:51;103165.44;;;9.29;42.85
21547;BME280;41275;51.912;4.388;2023-02-28T20:50:12;103165.56;;;9.19;43.00
21547;BME280;41275;51.912;4.388;2023-02-28T20:55:34;103157.47;;;9.13;43.01
21547;BME280;41275;51.912;4.388;2023-02-28T21:01:03;103162.22;;;9.09;43.30
21547;BME280;41275;51.912;4.388;2023-02-28T21:06:26;103156.91;;;9.01;43.38
21547;BME280;41275;51.912;4.388;2023-02-28T21:11:52;103160.69;;;8.98;43.77
21547;BME280;41275;51.912;4.388;2023-02-28T21:17:13;103174.53;;;8.92;43.69
21547;BME280;41275;51.912;4.388;2023-02-28T21:22:34;103178.78;;;8.85;43.42
21547;BME280;41275;51.912;4.388;2023-02-28T21:27:58;103186.19;;;8.81;44.30
21547;BME280;41275;51.912;4.388;2023-02-28T21:33:19;103179.19;;;8.72;43.68
21547;BME280;41275;51.912;4.388;2023-02-28T21:38:42;103192.34;;;8.64;44.04
21547;BME280;41275;51.912;4.388;2023-02-28T21:44:04;103192.16;;;8.57;44.18
21547;BME280;41275;51.912;4.388;2023-02-28T21:49:25;103196.09;;;8.53;43.79
21547;BME280;41275;51.912;4.388;2023-02-28T21:54:47;103195.34;;;8.43;44.17
21547;BME280;41275;51.912;4.388;2023-02-28T22:00:11;103189.97;;;8.35;44.01
21547;BME280;41275;51.912;4.388;2023-02-28T22:05:32;103190.16;;;8.33;44.41
21547;BME280;41275;51.912;4.388;2023-02-28T22:10:53;103184.34;;;8.30;44.30
21547;BME280;41275;51.912;4.388;2023-02-28T22:16:17;103188.41;;;8.24;44.74
21547;BME280;41275;51.912;4.388;2023-02-28T22:21:39;103189.69;;;8.20;44.53
21547;BME280;41275;51.912;4.388;2023-02-28T22:27:01;103187.81;;;8.12;44.93
21547;BME280;41275;51.912;4.388;2023-02-28T22:32:22;103188.28;;;8.08;45.42
21547;BME280;41275;51.912;4.388;2023-02-28T22:37:46;103195.00;;;8.02;45.20
21547;BME280;41275;51.912;4.388;2023-02-28T22:43:09;103199.75;;;7.99;45.22
21547;BME280;41275;51.912;4.388;2023-02-28T22:48:31;103200.72;;;7.98;45.28
21547;BME280;41275;51.912;4.388;2023-02-28T22:53:54;103201.97;;;7.94;45.99
21547;BME280;41275;51.912;4.388;2023-02-28T22:59:15;103198.16;;;7.88;45.97
21547;BME280;41275;51.912;4.388;2023-02-28T23:04:37;103199.97;;;7.87;45.94
21547;BME280;41275;51.912;4.388;2023-02-28T23:09:58;103202.22;;;7.82;45.89
21547;BME280;41275;51.912;4.388;2023-02-28T23:15:20;103200.72;;;7.80;46.42
21547;BME280;41275;51.912;4.388;2023-02-28T23:20:43;103194.06;;;7.76;46.66
21547;BME280;41275;51.912;4.388;2023-02-28T23:26:07;103196.88;;;7.74;46.85
21547;BME280;41275;51.912;4.388;2023-02-28T23:31:28;103190.91;;;7.72;46.69
21547;BME280;41275;51.912;4.388;2023-02-28T23:36:49;103185.09;;;7.69;46.99
21547;BME280;41275;51.912;4.388;2023-02-28T23:42:11;103199.41;;;7.66;46.82
21547;BME280;41275;51.912;4.388;2023-02-28T23:47:32;103192.75;;;7.62;47.60
21547;BME280;41275;51.912;4.388;2023-02-28T23:52:53;103209.84;;;7.58;47.53
21547;BME280;41275;51.912;4.388;2023-02-28T23:58:14;103201.72;;;7.51;47.42
